Time;durP1;ratioP1;P1;durP2;ratioP2;P2;SDS_P1;SDS_P2;PMS_P1;PMS_P2;Temp;Humidity;BMP_temperature;BMP_pressure;BME280_temperature;BME280_humidity;BME280_pressure;Samples;Min_cycle;Max_cycle;Signal;HPM_P1;HPM_P2
2023/03/09 00:00:57;;;;;;;10.55;7.90;;;;;;;11.65;56.81;98932.84;5093965;28;20095;-88
2023/03/09 00:03:22;;;;;;;13.48;9.57;;;;;;;11.74;56.17;98941.41;5093988;28;20024;-88
2023/03/09 00:05:56;;;;;;;10.68;8.43;;;;;;;11.86;56.84;98974.22;5093893;28;20408;-88
2023/03/09 00:08:22;;;;;;;10.02;7.20;;;;;;;11.02;56.57;98852.94;5093854;28;20432;-87
2023/03/09 00:10:51;;;;;;;8.82;7.55;;;;;;;11.04;56.64;98860.66;5093789;28;20020;-88
2023/03/09 00:13:17;;;;;;;10.13;7.65;;;;;;;11.57;56.73;98948.09;5093819;28;20016;-87
2023/03/09 00:15:43;;;;;;;10.48;7.35;;;;;;;11.73;56.39;98977.63;5093832;28;20024;-88
2023/03/09 00:18:09;;;;;;;11.05;7.18;;;;;;;11.07;56.30;98900.72;5093787;28;20023;-87
2023/03/09 00:20:34;;;;;;;9.32;7.20;;;;;;;11.09;56.40;98903.16;5092408;28;20020;-87
2023/03/09 00:23:08;;;;;;;8.45;7.10;;;;;;;11.00;56.65;98888.50;5093372;28;20051;-88
2023/03/09 00:25:34;;;;;;;7.35;6.18;;;;;;;10.28;56.35;98776.22;5093660;28;20431;-88
2023/03/09 00:27:59;;;;;;;9.60;7.07;;;;;;;10.81;56.72;98875.00;5093754;28;20031;-87
2023/03/09 00:30:25;;;;;;;13.57;9.77;;;;;;;11.33;56.34;98942.31;5093479;28;20027;-87
2023/03/09 00:32:52;;;;;;;27.88;17.05;;;;;;;10.78;56.62;98848.16;5093265;28;20053;-87
2023/03/09 00:35:17;;;;;;;25.65;15.27;;;;;;;10.93;56.21;98890.28;5093275;28;20028;-87
2023/03/09 00:37:43;;;;;;;19.75;13.63;;;;;;;10.35;56.86;98798.19;5092028;28;20081;-87
2023/03/09 00:40:10;;;;;;;11.60;9.32;;;;;;;10.83;56.45;98872.16;5092072;28;20024;-88
2023/03/09 00:42:41;;;;;;;10.43;8.10;;;;;;;11.19;56.64;98919.50;5093268;28;20089;-88
2023/03/09 00:45:07;;;;;;;10.48;7.93;;;;;;;11.04;56.66;98909.03;5093277;28;20059;-87
2023/03/09 00:47:33;;;;;;;11.00;8.23;;;;;;;10.36;56.12;98796.34;5093336;28;20042;-87
2023/03/09 00:49:58;;;;;;;8.48;7.30;;;;;;;11.22;56.83;98948.16;5091823;28;20032;-88
2023/03/09 00:52:23;;;;;;;9.75;7.45;;;;;;;11.38;56.44;98950.47;5092616;28;20024;-88
2023/03/09 00:54:52;;;;;;;9.57;7.68;;;;;;;10.96;56.38;98885.44;5092891;28;20091;-88
2023/03/09 00:57:21;;;;;;;10.73;7.30;;;;;;;10.46;56.13;98802.13;5092813;28;20047;-88
2023/03/09 00:59:47;;;;;;;10.35;7.88;;;;;;;11.06;56.39;98929.97;5092917;28;20098;-88
2023/03/09 01:02:13;;;;;;;9.40;8.05;;;;;;;10.87;56.92;98883.97;5091471;28;20050;-88
2023/03/09 01:04:38;;;;;;;8.82;7.93;;;;;;;11.23;56.43;98944.50;5091389;28;20424;-88
2023/03/09 01:07:04;;;;;;;13.68;10.32;;;;;;;11.05;56.26;98921.22;5090845;28;20020;-88
2023/03/09 01:09:29;;;;;;;11.02;7.70;;;;;;;11.08;56.64;98947.25;5092464;28;20027;-87
2023/03/09 01:11:55;;;;;;;8.80;7.07;;;;;;;11.11;56.50;98935.47;5092680;28;20031;-88
2023/03/09 01:14:20;;;;;;;9.25;6.95;;;;;;;10.28;56.71;98817.63;5092558;28;20016;-88
2023/03/09 01:16:45;;;;;;;9.95;6.90;;;;;;;10.39;56.57;98843.47;5091139;28;20493;-87
2023/03/09 01:19:11;;;;;;;9.05;6.80;;;;;;;10.59;56.55;98880.56;5092332;28;20097;-88
2023/03/09 01:21:36;;;;;;;11.23;7.68;;;;;;;10.43;56.50;98871.13;5092295;28;20508;-88
2023/03/09 01:24:02;;;;;;;10.15;7.10;;;;;;;10.95;56.28;98938.44;5090782;28;20428;-88
2023/03/09 01:26:27;;;;;;;11.15;8.35;;;;;;;10.73;56.64;98906.84;5091120;28;20024;-88
2023/03/09 01:28:53;;;;;;;13.88;10.13;;;;;;;10.73;56.47;98906.84;5092331;28;20027;-88
2023/03/09 01:31:18;;;;;;;14.65;10.68;;;;;;;10.72;56.67;98936.91;5092258;28;20522;-88
2023/03/09 01:33:44;;;;;;;13.63;10.43;;;;;;;10.68;56.65;98933.00;5091055;28;20099;-87
2023/03/09 01:36:15;;;;;;;14.73;11.40;;;;;;;10.73;56.31;98927.97;5092325;28;20050;-88
2023/03/09 01:38:41;;;;;;;13.07;9.45;;;;;;;10.22;56.58;98890.44;5091015;28;20016;-88
2023/03/09 01:41:06;;;;;;;9.90;7.35;;;;;;;10.12;57.09;98882.00;5092165;28;20552;-88
2023/03/09 01:43:39;;;;;;;10.68;8.32;;;;;;;10.50;56.75;98938.78;5090716;28;20028;-88
2023/03/09 01:46:20;;;;;;;10.70;7.57;;;;;;;10.44;57.41;98936.91;5092283;28;20028;-88
2023/03/09 01:48:49;;;;;;;10.93;7.60;;;;;;;9.54;57.09;98789.84;5090527;28;20077;-87
2023/03/09 01:51:14;;;;;;;9.32;7.07;;;;;;;10.08;57.03;98849.09;5092013;28;20104;-87
2023/03/09 01:53:40;;;;;;;11.82;8.25;;;;;;;10.12;57.15;98853.00;5091915;28;20095;-87
2023/03/09 01:56:06;;;;;;;7.97;6.25;;;;;;;10.56;56.87;98931.09;5091914;28;20492;-88
2023/03/09 01:58:33;;;;;;;9.63;6.40;;;;;;;10.30;57.04;98894.75;5090539;28;20031;-88
2023/03/09 02:00:59;;;;;;;8.50;5.70;;;;;;;9.74;56.83;98799.78;5092026;28;20493;-87
2023/03/09 02:03:35;;;;;;;6.95;5.43;;;;;;;10.45;56.79;98924.53;5090428;28;20085;-88
2023/03/09 02:06:09;;;;;;;7.65;5.22;;;;;;;10.49;57.19;98920.50;5090456;28;20024;-88
2023/03/09 02:08:36;;;;;;;15.02;9.80;;;;;;;10.43;56.91;98921.28;5091865;28;20020;-88
2023/03/09 02:11:06;;;;;;;17.88;11.18;;;;;;;10.53;56.71;98919.09;5091965;28;20024;-88
2023/03/09 02:13:38;;;;;;;18.73;11.75;;;;;;;10.46;56.84;98913.78;5091744;28;20016;-88
2023/03/09 02:16:04;;;;;;;9.50;7.45;;;;;;;10.45;57.03;98913.97;5091632;28;20048;-88
2023/03/09 02:18:30;;;;;;;9.55;7.45;;;;;;;10.42;56.73;98919.63;5091892;28;20535;-89
2023/03/09 02:21:23;;;;;;;11.50;7.15;;;;;;;10.41;56.54;98916.19;5092028;28;20084;-88
2023/03/09 02:23:56;;;;;;;9.00;6.40;;;;;;;10.37;56.97;98924.66;5090054;28;20040;-88
2023/03/09 02:26:28;;;;;;;8.13;6.30;;;;;;;10.34;57.28;98927.66;5091780;28;20056;-88
2023/03/09 02:28:54;;;;;;;9.65;7.03;;;;;;;9.95;57.14;98864.84;5091789;28;20023;-88
2023/03/09 02:31:19;;;;;;;8.07;6.03;;;;;;;10.23;57.28;98936.91;5091779;28;20106;-88
2023/03/09 02:33:45;;;;;;;7.70;6.18;;;;;;;9.78;57.16;98865.09;5091537;28;20121;-88
2023/03/09 02:36:11;;;;;;;10.25;7.53;;;;;;;9.60;56.95;98824.34;5091413;28;20501;-88
2023/03/09 02:38:36;;;;;;;9.20;6.47;;;;;;;9.30;57.05;98781.50;5091324;28;20024;-88
2023/03/09 02:41:04;;;;;;;7.63;5.78;;;;;;;10.29;57.01;98933.53;5090017;28;20031;-88
2023/03/09 02:43:36;;;;;;;10.00;6.90;;;;;;;10.29;56.65;98936.16;5090069;28;20036;-88
2023/03/09 02:46:02;;;;;;;19.63;13.57;;;;;;;9.82;56.96;98870.81;5091569;28;20058;-88
2023/03/09 02:48:28;;;;;;;16.10;10.05;;;;;;;10.26;57.02;98933.91;5091466;28;20048;-88
2023/03/09 02:50:53;;;;;;;10.32;8.32;;;;;;;9.63;56.90;98839.78;5090120;28;20024;-88
2023/03/09 02:53:19;;;;;;;11.82;8.45;;;;;;;10.25;56.72;98923.53;5091352;28;20434;-88
2023/03/09 02:55:44;;;;;;;10.32;7.85;;;;;;;9.91;56.85;98874.94;5089926;28;20020;-88
2023/03/09 02:58:10;;;;;;;8.65;7.72;;;;;;;9.90;56.80;98878.59;5089942;28;20024;-88
2023/03/09 03:00:35;;;;;;;8.70;7.55;;;;;;;9.73;56.84;98835.03;5089826;28;20408;-88
2023/03/09 03:03:01;;;;;;;11.27;7.53;;;;;;;9.79;56.75;98850.09;5090975;28;20054;-88
2023/03/09 03:05:26;;;;;;;10.25;7.78;;;;;;;9.52;56.80;98797.13;5091232;28;20024;-88
2023/03/09 03:07:52;;;;;;;10.15;8.25;;;;;;;10.01;57.31;98878.06;5091093;28;20028;-88
2023/03/09 03:10:17;;;;;;;13.10;8.50;;;;;;;9.67;56.89;98818.16;5091293;28;20031;-88
2023/03/09 03:12:43;;;;;;;9.98;7.80;;;;;;;9.59;56.98;98812.19;5091093;28;20026;-88
2023/03/09 03:15:09;;;;;;;13.57;8.48;;;;;;;9.68;56.85;98837.44;5089958;28;20017;-88
2023/03/09 03:17:35;;;;;;;12.18;8.73;;;;;;;9.49;56.73;98812.50;5091098;28;20028;-88
2023/03/09 03:20:00;;;;;;;12.07;8.40;;;;;;;9.78;57.16;98864.28;5091137;28;20020;-88
2023/03/09 03:22:26;;;;;;;11.25;7.95;;;;;;;10.26;56.92;98922.53;5091084;28;20409;-88
2023/03/09 03:24:51;;;;;;;15.07;8.27;;;;;;;9.62;57.43;98830.25;5090861;28;20504;-88
2023/03/09 03:27:17;;;;;;;13.90;8.60;;;;;;;10.14;57.13;98906.38;5091311;28;20099;-88
2023/03/09 03:29:42;;;;;;;13.50;9.35;;;;;;;9.48;56.95;98810.88;5089766;28;20024;-88
2023/03/09 03:32:08;;;;;;;16.67;10.88;;;;;;;10.24;56.83;98922.72;5092413;28;20012;-88
2023/03/09 03:34:34;;;;;;;16.33;10.75;;;;;;;10.22;57.05;98921.28;5094666;28;20110;-88
2023/03/09 03:36:59;;;;;;;15.70;9.85;;;;;;;9.49;57.27;98796.69;5094543;28;20024;-88
2023/03/09 03:39:25;;;;;;;15.20;11.13;;;;;;;9.29;56.73;98782.53;5094520;28;20027;-88
2023/03/09 03:41:50;;;;;;;15.18;10.50;;;;;;;10.25;56.92;98927.00;5094453;28;20024;-88
2023/03/09 03:44:16;;;;;;;17.20;10.10;;;;;;;9.62;57.15;98828.44;5094280;28;20032;-88
2023/03/09 03:46:41;;;;;;;14.35;10.07;;;;;;;9.86;57.08;98866.78;5094316;28;20023;-88
2023/03/09 03:49:07;;;;;;;14.93;10.10;;;;;;;9.61;57.01;98821.53;5094434;28;20020;-88
2023/03/09 03:51:32;;;;;;;16.27;9.18;;;;;;;9.78;56.91;98853.75;5092959;28;20024;-88
2023/03/09 03:53:58;;;;;;;13.55;9.57;;;;;;;9.16;57.22;98747.16;5094186;28;20021;-88
2023/03/09 03:56:23;;;;;;;17.80;9.98;;;;;;;9.82;57.23;98865.53;5094239;28;20023;-88
2023/03/09 03:58:49;;;;;;;16.65;10.40;;;;;;;10.14;57.45;98912.47;5093983;28;20085;-88
2023/03/09 04:01:15;;;;;;;18.38;11.48;;;;;;;9.97;56.97;98890.00;5093889;28;20073;-88
2023/03/09 04:03:40;;;;;;;20.33;10.98;;;;;;;10.14;57.30;98909.84;5093858;28;20496;-88
2023/03/09 04:06:06;;;;;;;16.73;9.90;;;;;;;9.39;57.02;98793.56;5094641;28;20035;-88
2023/03/09 04:08:32;;;;;;;18.50;10.70;;;;;;;9.91;57.33;98874.94;5093538;28;20023;-88
2023/03/09 04:10:58;;;;;;;17.95;10.40;;;;;;;10.03;57.30;98902.44;5094435;28;20024;-88
2023/03/09 04:13:24;;;;;;;14.93;10.40;;;;;;;9.74;56.94;98853.31;5094186;28;20408;-88
2023/03/09 04:15:49;;;;;;;14.45;10.32;;;;;;;9.90;57.26;98873.31;5094234;28;20024;-88
2023/03/09 04:18:15;;;;;;;16.10;10.32;;;;;;;9.57;57.40;98828.19;5092871;28;20020;-88
2023/03/09 04:20:42;;;;;;;20.33;11.38;;;;;;;9.68;57.37;98840.06;5093770;28;20031;-88
2023/03/09 04:23:09;;;;;;;20.02;10.52;;;;;;;10.10;56.92;98899.84;5093366;28;20516;-89
2023/03/09 04:25:35;;;;;;;21.80;10.35;;;;;;;9.13;56.99;98741.44;5093525;28;20100;-88
2023/03/09 04:28:00;;;;;;;18.27;9.70;;;;;;;9.65;57.04;98861.50;5093423;28;20035;-88
2023/03/09 04:30:26;;;;;;;18.35;10.57;;;;;;;9.66;57.43;98840.25;5093413;28;20500;-88
2023/03/09 04:32:51;;;;;;;21.02;10.00;;;;;;;9.74;57.81;98847.22;5093558;28;20017;-88
2023/03/09 04:35:17;;;;;;;15.88;9.40;;;;;;;10.02;57.59;98900.81;5093346;28;20016;-88
2023/03/09 04:37:43;;;;;;;18.60;11.13;;;;;;;9.39;57.37;98828.63;5093552;28;20137;-88
2023/03/09 04:40:09;;;;;;;20.95;12.30;;;;;;;9.98;57.33;98922.47;5093380;28;20024;-88
2023/03/09 04:42:35;;;;;;;21.60;14.85;;;;;;;9.83;57.43;98896.97;5093276;28;20020;-87
2023/03/09 04:45:00;;;;;;;24.75;14.07;;;;;;;9.72;57.62;98886.13;5093003;28;20393;-88
2023/03/09 04:47:26;;;;;;;24.90;15.52;;;;;;;9.96;57.33;98948.22;5093083;28;20030;-88
2023/03/09 04:49:51;;;;;;;22.85;15.27;;;;;;;9.05;57.68;98773.16;5093285;28;20024;-88
2023/03/09 04:52:16;;;;;;;27.48;18.75;;;;;;;9.85;57.42;98916.06;5092857;28;20501;-88
2023/03/09 04:54:42;;;;;;;24.35;16.95;;;;;;;9.66;57.48;98892.13;5093183;28;20382;-88
2023/03/09 04:57:07;;;;;;;24.02;17.50;;;;;;;9.03;57.11;98772.53;5091946;28;20016;-88
2023/03/09 04:59:33;;;;;;;25.30;20.23;;;;;;;8.96;56.99;98763.75;5091553;28;20023;-88
2023/03/09 05:01:58;;;;;;;23.30;15.70;;;;;;;9.85;57.42;98929.25;5092719;28;20568;-88
2023/03/09 05:04:24;;;;;;;23.60;16.42;;;;;;;9.97;57.01;98926.94;5091269;28;20016;-88
2023/03/09 05:06:49;;;;;;;24.13;17.77;;;;;;;9.75;57.16;98883.94;5092592;28;20031;-88
2023/03/09 05:09:15;;;;;;;21.42;15.50;;;;;;;9.47;56.91;98851.41;5091416;28;20493;-88
2023/03/09 05:11:42;;;;;;;24.27;15.15;;;;;;;9.84;56.93;98911.00;5092861;28;20020;-88
2023/03/09 05:14:07;;;;;;;20.10;15.30;;;;;;;10.02;56.86;98926.34;5091282;28;20519;-88
2023/03/09 05:16:33;;;;;;;20.00;15.23;;;;;;;10.01;56.82;98922.09;5092479;28;20098;-88
2023/03/09 05:18:58;;;;;;;21.52;15.60;;;;;;;9.51;56.86;98866.66;5092315;28;20069;-89
2023/03/09 05:21:23;;;;;;;24.15;16.10;;;;;;;9.56;56.88;98880.06;5092277;28;20028;-88
2023/03/09 05:23:49;;;;;;;27.67;17.50;;;;;;;9.87;57.21;98937.78;5092343;28;20420;-88
2023/03/09 05:26:14;;;;;;;33.05;19.52;;;;;;;9.25;56.92;98818.97;5092756;28;20024;-88
2023/03/09 05:28:40;;;;;;;28.73;18.55;;;;;;;9.94;57.24;98916.75;5092569;28;20096;-88
2023/03/09 05:31:13;;;;;;;27.05;19.52;;;;;;;9.90;57.16;98902.31;5092397;28;20024;-88
2023/03/09 05:33:38;;;;;;;30.25;19.33;;;;;;;9.48;57.34;98848.56;5092461;28;20024;-88
2023/03/09 05:36:14;;;;;;;29.42;20.02;;;;;;;9.71;57.42;98868.69;5091084;28;20030;-88
2023/03/09 05:38:40;;;;;;;36.05;21.20;;;;;;;9.77;56.90;98884.56;5092224;28;20409;-88
2023/03/09 05:41:05;;;;;;;35.95;20.55;;;;;;;9.44;57.12;98822.78;5090896;28;20024;-87
2023/03/09 05:43:31;;;;;;;32.72;20.92;;;;;;;10.09;57.16;98928.06;5090650;28;20026;-88
2023/03/09 05:45:56;;;;;;;28.92;18.67;;;;;;;9.39;56.87;98825.19;5092065;28;20021;-88
2023/03/09 05:48:22;;;;;;;36.78;20.92;;;;;;;9.57;56.87;98830.81;5092147;28;20036;-87
2023/03/09 05:50:47;;;;;;;30.85;20.77;;;;;;;9.46;57.32;98824.22;5092032;28;20027;-88
2023/03/09 05:53:13;;;;;;;33.85;19.02;;;;;;;9.54;56.89;98839.09;5091466;28;20412;-88
2023/03/09 05:55:38;;;;;;;21.45;15.00;;;;;;;9.90;57.12;98885.69;5091706;28;20020;-88
2023/03/09 05:58:03;;;;;;;25.35;15.90;;;;;;;10.16;56.86;98914.91;5092064;28;20016;-88
2023/03/09 06:00:29;;;;;;;22.73;15.95;;;;;;;9.53;56.59;98805.84;5091796;28;20020;-88
2023/03/09 06:02:54;;;;;;;27.00;16.90;;;;;;;10.32;56.56;98917.31;5091599;28;20112;-87
2023/03/09 06:05:20;;;;;;;21.45;16.10;;;;;;;10.06;56.52;98880.94;5089498;28;20020;-83
2023/03/09 06:07:45;;;;;;;31.52;18.85;;;;;;;10.48;56.42;98932.06;5090712;28;20519;-84
2023/03/09 06:10:12;;;;;;;26.70;15.68;;;;;;;9.38;56.22;98736.59;5090978;28;20085;-84
2023/03/09 06:12:37;;;;;;;23.25;16.30;;;;;;;10.64;56.82;98938.88;5093059;28;20026;-85
2023/03/09 06:15:03;;;;;;;22.77;15.90;;;;;;;10.36;56.33;98872.88;5091040;28;20020;-84
2023/03/09 06:17:28;;;;;;;25.23;15.60;;;;;;;10.05;55.98;98794.94;5091502;28;20095;-84
2023/03/09 06:19:53;;;;;;;22.30;14.63;;;;;;;10.41;55.68;98854.69;5090907;28;20436;-84
2023/03/09 06:22:19;;;;;;;30.75;17.17;;;;;;;10.49;55.77;98851.88;5091671;28;20493;-84
2023/03/09 06:24:44;;;;;;;27.75;15.77;;;;;;;11.02;55.13;98923.44;5091476;28;20424;-84
2023/03/09 06:27:10;;;;;;;22.73;16.60;;;;;;;11.07;55.69;98935.06;5091948;28;20496;-84
2023/03/09 06:29:35;;;;;;;27.42;15.30;;;;;;;10.42;54.92;98835.19;5091732;28;20051;-85
2023/03/09 06:32:01;;;;;;;21.98;13.82;;;;;;;10.96;54.96;98905.75;5089662;28;20572;-84
2023/03/09 06:34:29;;;;;;;22.15;13.88;;;;;;;10.39;55.10;98809.16;5087559;28;20024;-83
2023/03/09 06:36:54;;;;;;;18.95;13.02;;;;;;;10.61;54.80;98842.41;5089853;28;20051;-84
2023/03/09 06:39:20;;;;;;;16.70;13.20;;;;;;;11.18;54.27;98917.03;5089931;28;20477;-84
2023/03/09 06:41:45;;;;;;;18.80;14.10;;;;;;;11.00;54.62;98891.94;5092448;28;20016;-84
2023/03/09 06:44:11;;;;;;;18.60;11.65;;;;;;;11.26;54.03;98946.75;5092007;28;20032;-84
2023/03/09 06:46:37;;;;;;;22.15;13.23;;;;;;;10.99;53.96;98871.00;5092485;28;20016;-84
2023/03/09 06:49:02;;;;;;;21.95;13.30;;;;;;;11.62;53.80;98962.34;5091325;28;20028;-84
2023/03/09 06:51:28;;;;;;;21.60;13.50;;;;;;;11.06;53.90;98853.34;5088629;28;20408;-83
2023/03/09 06:53:53;;;;;;;20.58;13.73;;;;;;;11.20;53.82;98876.19;5090170;28;20078;-84
2023/03/09 06:56:18;;;;;;;19.85;14.45;;;;;;;11.88;54.42;98966.91;5090879;28;20069;-84
2023/03/09 06:58:44;;;;;;;20.55;13.98;;;;;;;11.07;54.51;98818.00;5090628;28;20408;-85
2023/03/09 07:01:11;;;;;;;16.35;11.25;;;;;;;11.85;54.06;98926.81;5089906;28;20519;-84
2023/03/09 07:03:38;;;;;;;64.47;16.15;;;;;;;11.58;53.58;98850.06;5088682;28;20024;-85
2023/03/09 07:06:04;;;;;;;16.83;10.65;;;;;;;11.62;53.58;98842.53;5092088;28;20077;-84
2023/03/09 07:08:29;;;;;;;19.70;9.32;;;;;;;11.86;53.40;98871.06;5099439;28;20027;-84
2023/03/09 07:10:55;;;;;;;14.63;10.75;;;;;;;12.45;52.85;98928.50;5073680;28;20021;-83
2023/03/09 07:13:20;;;;;;;15.18;8.43;;;;;;;12.04;53.00;98844.84;5090839;28;20028;-83
2023/03/09 07:15:46;;;;;;;14.48;10.35;;;;;;;12.44;52.60;98894.28;5090585;28;20027;-85
2023/03/09 07:18:11;;;;;;;10.55;6.50;;;;;;;12.59;52.06;98911.56;5085571;28;20173;-86
2023/03/09 07:20:38;;;;;;;9.80;6.95;;;;;;;12.56;51.87;98885.50;5093012;28;20020;-85
2023/03/09 07:23:04;;;;;;;10.63;7.40;;;;;;;12.61;52.03;98887.53;5087817;28;20249;-86
2023/03/09 07:25:33;;;;;;;13.60;7.65;;;;;;;12.67;51.75;98878.78;5092604;28;20135;-86
2023/03/09 07:28:02;;;;;;;11.57;6.90;;;;;;;12.78;51.68;98888.75;5093239;28;20058;-85
2023/03/09 07:30:29;;;;;;;10.10;8.13;;;;;;;13.20;51.31;98921.84;5094792;28;20488;-86
2023/03/09 07:32:58;;;;;;;9.90;7.22;;;;;;;12.62;51.15;98821.13;5093103;28;20020;-85
2023/03/09 07:35:24;;;;;;;11.18;6.18;;;;;;;12.97;51.01;98879.09;5094829;28;20012;-86
2023/03/09 07:37:50;;;;;;;10.70;7.70;;;;;;;13.26;50.70;98891.84;5078323;28;20028;-85
2023/03/09 07:40:17;;;;;;;12.27;7.25;;;;;;;13.18;50.79;98872.72;5094507;28;20046;-86
2023/03/09 07:42:42;;;;;;;9.02;7.05;;;;;;;12.98;50.43;98833.03;5093622;28;20477;-85
2023/03/09 07:45:09;;;;;;;8.13;5.38;;;;;;;13.09;50.05;98837.66;5092887;28;20020;-85
2023/03/09 07:47:34;;;;;;;5.35;4.60;;;;;;;13.35;49.71;98855.31;5093252;28;20136;-85
2023/03/09 07:50:01;;;;;;;8.07;4.97;;;;;;;13.60;49.60;98879.25;5091634;28;20134;-85
2023/03/09 07:52:30;;;;;;;5.65;4.55;;;;;;;12.42;49.34;98690.63;5088093;28;20115;-86
2023/03/09 07:54:59;;;;;;;4.90;4.03;;;;;;;13.28;49.03;98817.41;5090937;28;20020;-85
2023/03/09 07:57:26;;;;;;;4.80;4.28;;;;;;;13.73;48.75;98854.47;5091797;28;20816;-85
2023/03/09 07:59:54;;;;;;;6.75;5.03;;;;;;;13.74;48.55;98858.75;5092569;28;20106;-85
2023/03/09 08:02:21;;;;;;;6.32;4.65;;;;;;;13.72;48.36;98839.59;5093214;28;20038;-85
2023/03/09 08:04:46;;;;;;;6.07;4.80;;;;;;;14.10;48.01;98880.13;5092306;28;20026;-85
2023/03/09 08:07:12;;;;;;;10.88;9.73;;;;;;;13.75;47.81;98807.31;5093544;28;20039;-85
2023/03/09 08:09:37;;;;;;;9.57;6.63;;;;;;;13.87;47.91;98811.72;5089375;28;20020;-85
2023/03/09 08:12:03;;;;;;;8.60;7.50;;;;;;;14.12;48.05;98843.56;5085752;28;20031;-85
2023/03/09 08:14:29;;;;;;;7.22;5.32;;;;;;;14.59;47.72;98895.25;5091687;28;20020;-85
2023/03/09 08:16:54;;;;;;;6.82;6.13;;;;;;;14.61;47.51;98885.22;5093340;28;20172;-85
2023/03/09 08:19:21;;;;;;;6.47;4.93;;;;;;;14.43;47.25;98841.88;5093629;28;20104;-84
2023/03/09 08:21:49;;;;;;;7.63;5.07;;;;;;;14.80;46.91;98890.53;5091091;28;21223;-85
2023/03/09 08:24:15;;;;;;;5.38;4.05;;;;;;;14.77;46.77;98888.31;5091185;28;20036;-85
2023/03/09 08:26:41;;;;;;;5.95;4.55;;;;;;;14.40;46.65;98824.53;5088849;28;20050;-84
2023/03/09 08:29:07;;;;;;;4.30;3.88;;;;;;;14.99;46.33;98883.41;5090314;28;20117;-85
2023/03/09 08:31:34;;;;;;;5.30;3.42;;;;;;;15.09;46.20;98900.47;5093292;28;20102;-85
2023/03/09 08:34:00;;;;;;;4.78;4.05;;;;;;;14.67;45.79;98818.94;5091043;28;20098;-85
2023/03/09 08:36:25;;;;;;;6.72;4.70;;;;;;;15.13;45.86;98883.03;5091928;28;20535;-85
2023/03/09 08:38:51;;;;;;;5.40;4.68;;;;;;;14.65;45.68;98786.47;5092980;28;20019;-85
2023/03/09 08:41:17;;;;;;;5.20;3.35;;;;;;;14.64;45.04;98785.66;5092874;28;20122;-85
2023/03/09 08:43:43;;;;;;;3.53;2.97;;;;;;;15.33;45.37;98885.44;5092895;28;20410;-85
2023/03/09 08:46:09;;;;;;;5.60;3.45;;;;;;;15.31;44.89;98862.75;5091698;28;20022;-85
2023/03/09 08:48:34;;;;;;;12.68;5.97;;;;;;;15.17;45.14;98825.69;5091844;28;20146;-84
2023/03/09 08:51:01;;;;;;;8.45;5.13;;;;;;;15.14;44.98;98794.25;5092988;28;20459;-85
2023/03/09 08:53:27;;;;;;;6.43;3.70;;;;;;;15.46;44.96;98829.38;5090590;28;20027;-85
2023/03/09 08:55:52;;;;;;;5.43;4.00;;;;;;;15.57;44.67;98830.47;5083970;28;20528;-84
2023/03/09 08:58:18;;;;;;;9.20;5.50;;;;;;;15.31;44.64;98806.91;5090228;28;20024;-85
2023/03/09 09:00:43;;;;;;;4.32;3.92;;;;;;;16.05;44.67;98872.97;5079611;28;20024;-84
2023/03/09 09:03:09;;;;;;;4.95;3.60;;;;;;;15.95;44.33;98855.94;5086608;28;20031;-85
2023/03/09 09:05:35;;;;;;;7.20;4.07;;;;;;;15.68;44.28;98797.81;5085673;28;20125;-85
2023/03/09 09:08:00;;;;;;;7.07;3.67;;;;;;;15.73;43.71;98815.75;5090814;28;20045;-85
2023/03/09 09:10:26;;;;;;;4.10;3.55;;;;;;;15.79;43.57;98810.31;5091978;28;20500;-85
2023/03/09 09:12:52;;;;;;;5.00;4.50;;;;;;;15.63;43.51;98767.59;5092320;28;20038;-85
2023/03/09 09:15:17;;;;;;;5.32;3.63;;;;;;;15.94;43.48;98817.03;5091144;28;20031;-85
2023/03/09 09:17:43;;;;;;;5.60;3.97;;;;;;;16.35;43.57;98866.72;5089501;28;20024;-85
2023/03/09 09:20:10;;;;;;;5.13;4.28;;;;;;;15.80;43.44;98758.69;5091519;28;20027;-85
2023/03/09 09:22:36;;;;;;;4.75;3.75;;;;;;;16.40;43.04;98834.91;5082627;28;20027;-86
2023/03/09 09:25:01;;;;;;;4.88;3.90;;;;;;;16.14;43.39;98780.22;5090799;28;20432;-85
2023/03/09 09:27:27;;;;;;;4.97;3.95;;;;;;;16.52;42.98;98836.50;5091012;28;20027;-84
2023/03/09 09:29:53;;;;;;;5.57;3.47;;;;;;;16.36;43.03;98810.59;5090216;28;20166;-85
2023/03/09 09:32:19;;;;;;;6.25;5.07;;;;;;;16.77;42.93;98854.13;5091190;28;20028;-85
2023/03/09 09:34:45;;;;;;;4.95;3.60;;;;;;;16.23;42.93;98762.84;5092198;28;20075;-85
2023/03/09 09:37:11;;;;;;;7.03;3.28;;;;;;;16.83;42.60;98847.84;5091861;28;20039;-85
2023/03/09 09:39:38;;;;;;;5.40;2.85;;;;;;;16.88;42.74;98855.94;5088679;28;20023;-85
2023/03/09 09:42:09;;;;;;;4.75;3.40;;;;;;;16.69;42.13;98823.31;5078623;28;20028;-85
2023/03/09 09:44:42;;;;;;;4.47;3.00;;;;;;;16.49;41.79;98796.19;5082096;28;20039;-84
2023/03/09 09:47:15;;;;;;;4.07;3.00;;;;;;;16.92;42.08;98858.97;5091819;28;20058;-85
2023/03/09 09:49:47;;;;;;;3.30;2.55;;;;;;;16.66;41.74;98797.13;5088024;28;20103;-85
2023/03/09 09:52:19;;;;;;;;;;;;;;;16.93;41.23;98841.91;5088552;28;20496;-85
2023/03/09 09:54:50;;;;;;;2.30;2.05;;;;;;;16.38;41.90;98733.91;5069824;28;19938;-85
2023/03/09 09:57:23;;;;;;;5.15;2.70;;;;;;;17.08;41.83;98834.22;5065013;28;20094;-85
2023/03/09 10:00:04;;;;;;;4.72;2.88;;;;;;;17.16;41.40;98831.19;5068131;28;20039;-85
2023/03/09 10:03:07;;;;;;;4.80;3.47;;;;;;;17.24;40.79;98832.69;5061735;28;20033;-85
2023/03/09 10:06:01;;;;;;;6.80;3.17;;;;;;;17.35;41.05;98829.16;5070846;28;20044;-84
2023/03/09 10:08:35;;;;;;;3.47;3.17;;;;;;;17.40;41.07;98827.38;5071444;28;20059;-84
2023/03/09 10:11:09;;;;;;;5.80;3.25;;;;;;;16.92;40.88;98755.78;5070276;28;20032;-85
2023/03/09 10:13:41;;;;;;;4.47;3.45;;;;;;;17.56;40.81;98833.78;5056800;28;20040;-84
2023/03/09 10:16:13;;;;;;;3.50;2.80;;;;;;;17.65;40.79;98836.88;5064133;28;20032;-86
2023/03/09 10:18:45;;;;;;;4.50;3.00;;;;;;;17.57;40.59;98787.38;5051187;28;20071;-85
2023/03/09 10:21:19;;;;;;;3.83;3.25;;;;;;;17.45;40.00;98762.59;5058411;28;20032;-85
2023/03/09 10:23:46;;;;;;;3.53;2.58;;;;;;;17.90;39.92;98816.00;5069615;28;20044;-84
2023/03/09 10:26:11;;;;;;;3.80;3.47;;;;;;;17.92;39.69;98805.88;5069351;28;20032;-85
2023/03/09 10:28:42;;;;;;;5.82;4.43;;;;;;;17.77;39.64;98773.56;5058115;28;20508;-83
2023/03/09 10:31:16;;;;;;;4.88;4.35;;;;;;;16.59;39.88;98580.53;5063856;28;20032;-85
2023/03/09 10:33:57;;;;;;;6.60;4.65;;;;;;;17.96;39.85;98795.53;5058016;28;20040;-84
2023/03/09 10:36:31;;;;;;;5.53;3.15;;;;;;;18.04;39.50;98797.78;5067549;28;20071;-85
2023/03/09 10:39:10;;;;;;;6.38;3.35;;;;;;;18.23;39.72;98798.31;5061921;28;20102;-85
2023/03/09 10:41:35;;;;;;;9.25;7.20;;;;;;;18.00;39.43;98741.38;5070111;28;20065;-84
2023/03/09 10:44:03;;;;;;;4.90;3.35;;;;;;;18.11;39.14;98731.63;5059144;28;20481;-84
2023/03/09 10:46:30;;;;;;;3.33;2.97;;;;;;;18.70;39.12;98772.81;5060676;28;20047;-84
2023/03/09 10:49:13;;;;;;;8.45;6.88;;;;;;;18.81;38.66;98743.50;5067451;28;20428;-83
2023/03/09 10:51:42;;;;;;;6.07;4.90;;;;;;;19.17;38.01;98758.84;5066803;28;20032;-82
2023/03/09 10:54:30;;;;;;;7.40;4.70;;;;;;;19.36;36.79;98752.09;5066501;28;20485;-83
2023/03/09 10:56:55;;;;;;;3.22;2.10;;;;;;;19.16;36.40;98692.22;5068997;28;20031;-83
2023/03/09 10:59:23;;;;;;;3.67;2.97;;;;;;;19.66;36.64;98743.56;5065671;28;20024;-84
2023/03/09 11:01:54;;;;;;;3.38;3.08;;;;;;;19.86;36.89;98753.59;5066954;28;20089;-83
2023/03/09 11:04:26;;;;;;;;;;;;;;;19.92;36.50;98757.13;5067134;28;20043;-83
2023/03/09 11:06:53;;;;;;;2.87;2.50;;;;;;;20.00;35.57;98752.09;5069880;28;19965;-82
2023/03/09 11:09:29;;;;;;;4.75;2.30;;;;;;;20.15;34.56;98743.38;5072108;28;20802;-83
2023/03/09 11:12:14;;;;;;;3.92;2.58;;;;;;;19.99;34.55;98709.47;5069141;28;20036;-84
2023/03/09 11:15:00;;;;;;;2.45;1.88;;;;;;;20.04;33.85;98730.94;5063432;28;20095;-85
2023/03/09 11:17:34;;;;;;;3.35;2.20;;;;;;;19.99;34.36;98720.19;5066107;28;20060;-85
2023/03/09 11:20:12;;;;;;;2.65;1.80;;;;;;;19.89;34.70;98714.78;5057603;28;20032;-82
2023/03/09 11:22:40;;;;;;;3.80;2.20;;;;;;;19.84;34.89;98709.38;5068298;28;20365;-84
2023/03/09 11:25:45;;;;;;;4.25;2.60;;;;;;;19.89;34.91;98704.88;5073864;28;20045;-84
2023/03/09 11:28:35;;;;;;;2.92;1.75;;;;;;;19.85;33.56;98681.53;5068805;28;20056;-84
2023/03/09 11:31:00;;;;;;;2.42;1.73;;;;;;;19.56;34.34;98651.63;5064544;28;20079;-84